createdAt,value
2019-03-22T00:02:32.837Z,33.30
2019-03-22T00:05:36.161Z,33.85
2019-03-22T00:08:39.481Z,29.25
2019-03-22T00:11:42.856Z,33.65
2019-03-22T00:14:46.847Z,35.80
2019-03-22T00:17:50.189Z,38.05
2019-03-22T00:20:53.469Z,30.35
2019-03-22T00:23:56.771Z,45.45
2019-03-22T00:27:00.182Z,35.48
2019-03-22T00:30:06.602Z,35.88
2019-03-22T00:33:09.930Z,35.00
2019-03-22T00:36:13.231Z,32.83
2019-03-22T00:39:16.565Z,36.55
2019-03-22T00:42:19.865Z,34.13
2019-03-22T00:45:23.223Z,39.55
2019-03-22T00:48:26.571Z,103.42
2019-03-22T00:51:29.877Z,52.17
2019-03-22T00:54:33.200Z,54.27
2019-03-22T00:57:36.565Z,45.03
2019-03-22T01:00:39.861Z,49.98
2019-03-22T01:03:43.178Z,53.28
2019-03-22T01:06:46.482Z,44.30
2019-03-22T01:09:49.799Z,42.95
2019-03-22T01:12:53.119Z,39.42
2019-03-22T01:15:56.434Z,39.80
2019-03-22T01:18:59.721Z,42.40
2019-03-22T01:22:03.039Z,49.18
2019-03-22T01:25:07.003Z,34.60
2019-03-22T01:28:10.325Z,36.00
2019-03-22T01:31:13.641Z,40.35
2019-03-22T01:34:17.113Z,33.58
2019-03-22T01:37:20.437Z,34.50
2019-03-22T01:40:23.735Z,39.83
2019-03-22T01:43:27.042Z,32.98
2019-03-22T01:46:30.363Z,45.35
2019-03-22T01:49:33.677Z,38.67
2019-03-22T01:52:37.424Z,40.90
2019-03-22T01:55:40.735Z,41.75
2019-03-22T01:58:44.072Z,42.98
2019-03-22T02:01:47.387Z,42.08
2019-03-22T02:04:50.763Z,38.67
2019-03-22T02:07:54.030Z,30.15
2019-03-22T02:10:57.311Z,35.55
2019-03-22T02:14:00.902Z,41.83
2019-03-22T02:17:04.239Z,39.15
2019-03-22T02:20:08.478Z,45.03
2019-03-22T02:23:11.791Z,47.13
2019-03-22T02:26:15.108Z,39.00
2019-03-22T02:29:18.422Z,40.65
2019-03-22T02:32:21.754Z,42.48
2019-03-22T02:35:28.860Z,44.80
2019-03-22T02:38:30.091Z,44.10
2019-03-22T02:41:33.381Z,49.70
2019-03-22T02:44:36.707Z,44.20
2019-03-22T02:47:40.042Z,41.65
2019-03-22T02:50:43.339Z,48.30
2019-03-22T02:53:46.662Z,45.33
2019-03-22T02:56:50.139Z,51.20
2019-03-22T02:59:53.535Z,49.03
2019-03-22T03:02:56.853Z,52.70
2019-03-22T03:06:00.178Z,46.63
2019-03-22T03:09:04.620Z,52.23
2019-03-22T03:12:07.953Z,56.90
2019-03-22T03:15:15.633Z,45.05
2019-03-22T03:18:18.960Z,41.05
2019-03-22T03:21:22.279Z,50.63
2019-03-22T03:24:25.616Z,44.63
2019-03-22T03:27:28.928Z,41.60
2019-03-22T03:30:32.257Z,54.67
2019-03-22T03:33:35.567Z,51.65
2019-03-22T03:36:38.873Z,46.25
2019-03-22T03:39:42.196Z,45.00
2019-03-22T03:42:45.593Z,43.17
2019-03-22T03:45:48.895Z,43.02
2019-03-22T03:48:52.216Z,41.15
2019-03-22T03:51:55.563Z,48.17
2019-03-22T03:54:58.862Z,44.98
2019-03-22T03:58:02.186Z,45.60
2019-03-22T04:01:05.490Z,43.13
2019-03-22T04:04:08.830Z,46.25
2019-03-22T04:07:12.171Z,48.05
2019-03-22T04:10:15.472Z,48.35
2019-03-22T04:13:18.801Z,43.08
2019-03-22T04:16:22.121Z,41.80
2019-03-22T04:19:25.468Z,43.52
2019-03-22T04:22:28.780Z,41.10
2019-03-22T04:25:32.087Z,42.90
2019-03-22T04:28:35.415Z,46.42
2019-03-22T04:31:38.725Z,46.18
2019-03-22T04:34:42.065Z,48.48
2019-03-22T04:37:45.397Z,36.80
2019-03-22T04:40:48.711Z,40.03
2019-03-22T04:43:52.023Z,54.65
2019-03-22T04:46:55.339Z,40.55
2019-03-22T04:49:58.653Z,44.23
2019-03-22T04:53:01.972Z,40.17
2019-03-22T04:56:06.325Z,41.33
2019-03-22T04:59:18.893Z,44.77
2019-03-22T05:02:15.914Z,40.78
2019-03-22T05:05:19.231Z,39.45
2019-03-22T05:08:22.549Z,41.55
2019-03-22T05:11:25.853Z,41.20
2019-03-22T05:14:29.355Z,45.95
2019-03-22T05:17:32.688Z,41.95
2019-03-22T05:20:36.007Z,47.70
2019-03-22T05:23:39.332Z,39.65
2019-03-22T05:26:42.637Z,41.63
2019-03-22T05:29:45.984Z,36.63
2019-03-22T05:32:49.309Z,37.28
2019-03-22T05:35:52.631Z,35.38
2019-03-22T05:38:55.975Z,40.00
2019-03-22T05:41:59.280Z,30.92
2019-03-22T05:45:02.641Z,41.30
2019-03-22T05:48:05.959Z,35.98
2019-03-22T05:51:09.303Z,30.57
2019-03-22T05:54:12.609Z,30.00
2019-03-22T05:57:15.924Z,33.18
2019-03-22T06:00:19.282Z,34.00
2019-03-22T06:03:22.625Z,34.33
2019-03-22T06:06:25.947Z,31.02
2019-03-22T06:09:29.270Z,30.48
2019-03-22T06:12:32.597Z,29.82
2019-03-22T06:15:35.925Z,28.92
2019-03-22T06:18:39.318Z,30.88
2019-03-22T06:21:42.661Z,33.25
2019-03-22T06:24:45.982Z,28.77
2019-03-22T06:27:49.284Z,28.35
2019-03-22T06:30:52.688Z,32.25
2019-03-22T06:33:55.998Z,28.62
2019-03-22T06:36:59.313Z,29.25
2019-03-22T06:40:02.655Z,28.30
2019-03-22T06:43:05.961Z,27.67
2019-03-22T06:46:09.296Z,32.73
2019-03-22T06:49:12.607Z,31.52
2019-03-22T06:52:16.010Z,27.90
2019-03-22T06:55:19.410Z,30.20
2019-03-22T06:58:24.197Z,25.40
2019-03-22T07:01:27.800Z,27.00
2019-03-22T07:04:31.182Z,26.70
2019-03-22T07:07:34.585Z,29.23
2019-03-22T07:10:37.992Z,29.70
2019-03-22T07:13:41.369Z,24.63
2019-03-22T07:16:44.764Z,28.12
2019-03-22T07:19:48.160Z,34.92
2019-03-22T07:22:51.593Z,33.58
2019-03-22T07:25:55.001Z,31.57
2019-03-22T07:28:58.397Z,32.28
2019-03-22T07:32:01.810Z,33.65
2019-03-22T07:35:05.677Z,33.38
2019-03-22T07:38:09.096Z,33.10
2019-03-22T07:41:12.569Z,33.55
2019-03-22T07:44:15.958Z,32.20
2019-03-22T07:47:19.364Z,29.50
2019-03-22T07:50:22.766Z,36.25
2019-03-22T07:53:26.174Z,41.08
2019-03-22T07:56:29.567Z,38.70
2019-03-22T07:59:32.950Z,36.17
2019-03-22T08:02:36.351Z,35.13
2019-03-22T08:05:50.997Z,43.92
2019-03-22T08:08:44.896Z,31.75
2019-03-22T08:11:48.303Z,36.13
2019-03-22T08:14:51.799Z,32.45
2019-03-22T08:17:57.091Z,32.33
2019-03-22T08:21:00.293Z,35.83
2019-03-22T08:24:03.676Z,37.10
2019-03-22T08:27:07.102Z,33.05
2019-03-22T08:30:10.505Z,33.45
2019-03-22T08:33:13.875Z,38.35
2019-03-22T08:36:17.268Z,36.30
2019-03-22T08:39:20.668Z,25.62
2019-03-22T08:42:24.070Z,34.65
2019-03-22T08:45:27.458Z,29.87
2019-03-22T08:48:30.896Z,24.72
2019-03-22T08:51:34.247Z,27.05
2019-03-22T08:54:38.419Z,28.92
2019-03-22T08:57:41.922Z,33.48
2019-03-22T09:00:56.761Z,33.90
2019-03-22T09:03:50.451Z,30.75
2019-03-22T09:06:53.863Z,29.48
2019-03-22T09:09:57.290Z,28.92
2019-03-22T09:13:00.662Z,39.40
2019-03-22T09:16:04.109Z,31.90
2019-03-22T09:19:07.473Z,30.30
2019-03-22T09:22:10.855Z,36.25
2019-03-22T09:25:14.254Z,35.08
2019-03-22T09:28:17.654Z,31.35
2019-03-22T09:31:21.080Z,31.05
2019-03-22T09:34:33.497Z,27.35
2019-03-22T09:37:29.563Z,35.25
2019-03-22T09:40:32.959Z,41.60
2019-03-22T09:43:36.654Z,33.98
2019-03-22T09:46:40.011Z,41.50
2019-03-22T09:49:43.538Z,31.57
2019-03-22T09:52:46.952Z,37.70
2019-03-22T09:55:50.341Z,34.05
2019-03-22T09:58:53.727Z,33.67
2019-03-22T10:01:57.163Z,38.28
2019-03-22T10:05:00.524Z,38.33
2019-03-22T10:08:03.925Z,34.80
2019-03-22T10:11:07.355Z,33.75
2019-03-22T10:14:10.755Z,37.53
2019-03-22T10:17:14.123Z,41.20
2019-03-22T10:20:17.594Z,44.48
2019-03-22T10:23:22.399Z,39.33
2019-03-22T10:26:26.022Z,40.12
2019-03-22T10:29:29.423Z,37.42
2019-03-22T10:32:32.792Z,41.13
2019-03-22T10:35:36.208Z,39.75
2019-03-22T10:38:39.644Z,37.03
2019-03-22T10:41:43.012Z,42.70
2019-03-22T10:44:46.423Z,36.25
2019-03-22T10:47:49.815Z,39.48
2019-03-22T10:50:53.216Z,39.80
2019-03-22T10:53:56.667Z,39.50
2019-03-22T10:57:00.039Z,40.45
2019-03-22T11:00:08.467Z,40.15
2019-03-22T11:03:11.845Z,43.40
2019-03-22T11:06:25.499Z,42.05
2019-03-22T11:09:20.430Z,44.35
2019-03-22T11:12:23.826Z,46.63
2019-03-22T11:15:27.320Z,44.60
2019-03-22T11:18:37.318Z,46.45
2019-03-22T11:21:35.837Z,42.00
2019-03-22T11:24:39.229Z,44.77
2019-03-22T11:27:42.648Z,44.45
2019-03-22T11:30:46.041Z,43.65
2019-03-22T11:33:49.431Z,42.40
2019-03-22T11:36:52.843Z,39.58
2019-03-22T11:39:56.235Z,39.75
2019-03-22T11:43:08.274Z,41.68
2019-03-22T11:46:04.746Z,40.95
2019-03-22T11:49:08.143Z,42.20
2019-03-22T11:52:11.579Z,46.63
2019-03-22T11:55:15.058Z,44.55
2019-03-22T11:58:18.472Z,47.20
2019-03-22T12:01:22.626Z,47.20
2019-03-22T12:04:26.251Z,50.08
2019-03-22T12:07:29.657Z,48.68
2019-03-22T12:10:33.037Z,45.92
2019-03-22T12:13:36.441Z,48.35
2019-03-22T12:16:39.832Z,46.68
2019-03-22T12:19:43.212Z,46.98
2019-03-22T12:22:46.628Z,43.55
2019-03-22T12:25:50.043Z,54.55
2019-03-22T12:28:53.428Z,50.08
2019-03-22T12:31:56.824Z,48.38
2019-03-22T12:35:00.323Z,47.35
2019-03-22T12:38:03.713Z,45.43
2019-03-22T12:41:07.106Z,44.45
2019-03-22T12:44:10.493Z,40.55
2019-03-22T12:47:13.893Z,43.42
2019-03-22T12:50:17.275Z,38.38
2019-03-22T12:53:20.684Z,35.05
2019-03-22T12:56:24.070Z,42.75
2019-03-22T12:59:27.507Z,47.00
2019-03-22T13:02:30.929Z,43.85
2019-03-22T13:05:34.312Z,43.23
2019-03-22T13:08:37.732Z,39.08
2019-03-22T13:11:41.131Z,42.30
2019-03-22T13:14:44.540Z,41.50
2019-03-22T13:17:47.941Z,39.23
2019-03-22T13:20:51.322Z,45.58
2019-03-22T13:23:54.752Z,50.50
2019-03-22T13:26:58.148Z,48.30
2019-03-22T13:30:01.549Z,42.50
2019-03-22T13:33:05.226Z,44.70
2019-03-22T13:36:08.618Z,46.40
2019-03-22T13:39:12.026Z,40.40
2019-03-22T13:42:15.422Z,41.45
2019-03-22T13:45:18.840Z,50.52
2019-03-22T13:48:22.252Z,45.35
2019-03-22T13:51:25.645Z,41.35
2019-03-22T13:54:29.045Z,46.25
2019-03-22T13:57:32.450Z,47.83
2019-03-22T14:00:35.854Z,46.10
2019-03-22T14:03:39.259Z,55.55
2019-03-22T14:06:42.670Z,51.53
2019-03-22T14:09:46.075Z,47.35
2019-03-22T14:12:49.525Z,56.63
2019-03-22T14:15:52.973Z,48.87
2019-03-22T14:18:56.413Z,46.23
2019-03-22T14:21:59.792Z,50.33
2019-03-22T14:25:03.565Z,46.00
2019-03-22T14:28:06.963Z,42.95
2019-03-22T14:31:10.389Z,45.48
2019-03-22T14:34:13.811Z,46.08
2019-03-22T14:37:17.281Z,44.08
2019-03-22T14:40:21.055Z,37.05
2019-03-22T14:43:24.437Z,37.48
2019-03-22T14:46:27.844Z,38.60
2019-03-22T14:49:31.249Z,38.35
2019-03-22T14:52:34.645Z,34.23
2019-03-22T14:55:38.048Z,39.85
2019-03-22T14:58:41.449Z,35.90
2019-03-22T15:01:44.846Z,36.75
2019-03-22T15:04:48.243Z,40.12
2019-03-22T15:07:51.619Z,37.40
2019-03-22T15:10:55.077Z,39.33
2019-03-22T15:14:02.951Z,35.80
2019-03-22T15:17:24.653Z,28.83
2019-03-22T15:20:29.612Z,32.30
2019-03-22T15:23:40.770Z,29.20
2019-03-22T15:26:58.197Z,32.42
2019-03-22T15:30:04.611Z,40.03
2019-03-22T15:33:34.144Z,38.15
2019-03-22T15:36:50.557Z,39.88
2019-03-22T15:40:03.350Z,43.38
2019-03-22T15:43:06.797Z,36.77
2019-03-22T15:46:10.193Z,46.73
2019-03-22T15:49:13.807Z,41.53
2019-03-22T15:52:17.210Z,47.10
2019-03-22T15:55:20.596Z,49.70
2019-03-22T15:58:23.996Z,47.53
2019-03-22T16:01:27.380Z,46.92
2019-03-22T16:04:30.791Z,47.73
2019-03-22T16:07:34.183Z,46.42
2019-03-22T16:10:37.580Z,48.30
2019-03-22T16:13:40.979Z,46.53
2019-03-22T16:16:44.371Z,50.50
2019-03-22T16:19:47.761Z,48.00
2019-03-22T16:22:51.161Z,49.85
2019-03-22T16:25:54.558Z,51.42
2019-03-22T16:28:57.972Z,44.88
2019-03-22T16:32:01.366Z,51.00
2019-03-22T16:35:06.500Z,46.20
2019-03-22T16:38:09.911Z,49.03
2019-03-22T16:41:13.298Z,47.45
2019-03-22T16:44:16.708Z,47.13
2019-03-22T16:47:20.114Z,44.80
2019-03-22T16:50:24.549Z,53.52
2019-03-22T16:53:27.948Z,41.00
2019-03-22T16:56:31.330Z,39.90
2019-03-22T16:59:34.736Z,42.50
2019-03-22T17:02:38.168Z,43.42
2019-03-22T17:05:41.552Z,45.65
2019-03-22T17:08:45.006Z,42.60
2019-03-22T17:11:48.405Z,42.80
2019-03-22T17:14:51.805Z,41.05
2019-03-22T17:17:55.221Z,45.63
2019-03-22T17:20:58.630Z,42.62
2019-03-22T17:24:02.070Z,44.42
2019-03-22T17:27:05.571Z,43.13
2019-03-22T17:30:10.230Z,43.55
2019-03-22T17:33:13.623Z,43.48
2019-03-22T17:36:17.025Z,47.55
2019-03-22T17:39:20.462Z,46.20
2019-03-22T17:42:23.833Z,42.98
2019-03-22T17:45:27.222Z,49.88
2019-03-22T17:48:30.659Z,49.38
2019-03-22T17:51:34.085Z,48.33
2019-03-22T17:54:37.477Z,48.30
2019-03-22T17:57:40.848Z,50.92
2019-03-22T18:00:44.860Z,57.27
2019-03-22T18:03:48.240Z,52.98
2019-03-22T18:06:51.644Z,56.18
2019-03-22T18:09:55.038Z,64.65
2019-03-22T18:12:58.341Z,55.12
2019-03-22T18:16:01.742Z,63.55
2019-03-22T18:19:05.042Z,60.12
2019-03-22T18:22:08.475Z,59.90
2019-03-22T18:25:11.814Z,55.63
2019-03-22T18:28:15.129Z,64.60
2019-03-22T18:31:18.527Z,66.00
2019-03-22T18:34:21.864Z,67.20
2019-03-22T18:37:25.215Z,65.97
2019-03-22T18:40:28.530Z,78.45
2019-03-22T18:43:31.878Z,65.47
2019-03-22T18:46:35.213Z,66.55
2019-03-22T18:49:38.537Z,72.03
2019-03-22T18:52:41.876Z,72.00
2019-03-22T18:55:45.254Z,71.22
2019-03-22T18:58:48.604Z,68.07
2019-03-22T19:01:52.007Z,70.35
2019-03-22T19:04:55.305Z,69.65
2019-03-22T19:07:58.642Z,68.57
2019-03-22T19:11:01.968Z,79.10
2019-03-22T19:14:05.301Z,77.62
2019-03-22T19:17:08.606Z,68.35
2019-03-22T19:20:12.964Z,71.87
2019-03-22T19:23:16.297Z,69.72
2019-03-22T19:26:19.585Z,70.45
2019-03-22T19:29:22.913Z,65.78
2019-03-22T19:32:26.254Z,69.75
2019-03-22T19:35:29.692Z,76.90
2019-03-22T19:38:33.016Z,76.07
2019-03-22T19:41:36.331Z,73.15
2019-03-22T19:44:39.844Z,78.50
2019-03-22T19:47:43.455Z,75.03
2019-03-22T19:50:46.764Z,71.28
2019-03-22T19:53:50.087Z,71.67
2019-03-22T19:56:53.422Z,72.60
2019-03-22T19:59:56.750Z,77.85
2019-03-22T20:03:00.133Z,69.97
2019-03-22T20:06:03.450Z,70.35
2019-03-22T20:09:08.894Z,74.62
2019-03-22T20:12:12.209Z,69.37
2019-03-22T20:15:15.540Z,81.75
2019-03-22T20:18:18.857Z,72.37
2019-03-22T20:21:22.179Z,124.05
2019-03-22T20:24:25.543Z,75.37
2019-03-22T20:27:28.877Z,84.80
2019-03-22T20:30:32.204Z,76.15
2019-03-22T20:33:35.559Z,66.53
2019-03-22T20:36:38.875Z,67.78
2019-03-22T20:39:42.232Z,67.40
2019-03-22T20:42:45.533Z,69.62
2019-03-22T20:45:48.909Z,71.85
2019-03-22T20:48:52.502Z,69.87
2019-03-22T20:51:55.806Z,68.45
2019-03-22T20:54:59.152Z,69.45
2019-03-22T20:58:02.455Z,65.85
2019-03-22T21:01:25.659Z,72.87
2019-03-22T21:04:29.089Z,70.40
2019-03-22T21:07:32.474Z,61.58
2019-03-22T21:10:35.838Z,63.68
2019-03-22T21:13:39.170Z,66.67
2019-03-22T21:16:42.500Z,65.97
2019-03-22T21:19:46.202Z,67.32
2019-03-22T21:22:49.914Z,69.75
2019-03-22T21:25:55.302Z,65.97
2019-03-22T21:28:58.890Z,61.98
2019-03-22T21:32:02.378Z,61.58
2019-03-22T21:35:07.075Z,70.42
2019-03-22T21:38:11.359Z,66.28
2019-03-22T21:41:14.866Z,65.47
2019-03-22T21:44:18.652Z,66.17
2019-03-22T21:47:21.987Z,72.67
2019-03-22T21:50:25.335Z,71.97
2019-03-22T21:53:28.663Z,65.97
2019-03-22T21:56:32.018Z,68.92
2019-03-22T21:59:35.328Z,72.42
2019-03-22T22:02:38.661Z,71.45
2019-03-22T22:05:47.758Z,69.40
2019-03-22T22:08:47.107Z,69.22
2019-03-22T22:11:50.436Z,68.30
2019-03-22T22:14:54.113Z,74.17
2019-03-22T22:17:57.433Z,72.82
2019-03-22T22:21:00.914Z,71.45
2019-03-22T22:24:04.918Z,75.97
2019-03-22T22:27:13.819Z,68.20
2019-03-22T22:30:13.458Z,69.05
2019-03-22T22:33:16.789Z,73.60
2019-03-22T22:36:20.098Z,72.37
2019-03-22T22:39:23.431Z,69.00
2019-03-22T22:42:26.765Z,67.67
2019-03-22T22:45:30.062Z,71.62
2019-03-22T22:48:33.404Z,70.40
2019-03-22T22:51:36.713Z,68.12
2019-03-22T22:54:40.018Z,71.53
2019-03-22T22:57:43.370Z,71.60
2019-03-22T23:00:47.150Z,66.17
2019-03-22T23:03:50.550Z,71.25
2019-03-22T23:06:53.909Z,75.70
2019-03-22T23:09:57.182Z,68.37
2019-03-22T23:13:00.515Z,70.65
2019-03-22T23:16:03.821Z,71.33
2019-03-22T23:19:07.207Z,69.30
2019-03-22T23:22:10.541Z,70.92
2019-03-22T23:25:13.864Z,68.80
2019-03-22T23:28:17.196Z,83.58
2019-03-22T23:31:20.649Z,73.67
2019-03-22T23:34:23.968Z,67.50
2019-03-22T23:37:27.308Z,75.65
2019-03-22T23:40:30.680Z,69.95
2019-03-22T23:43:34.006Z,67.55
2019-03-22T23:46:37.306Z,76.25
2019-03-22T23:49:40.638Z,79.53
2019-03-22T23:52:43.960Z,70.80
2019-03-22T23:55:47.262Z,70.90
2019-03-22T23:58:50.585Z,71.75
